Terminal Aerodrome Forecast
Issued by NWS

Home | Current Version | Previous Version | Graphics & Text | Print | Product List | Glossary On
Versions: 1 2 3 4 5 6 7 8 9 10 11 12 13 14 15 16 17 18 19 20 21 22 23
000
FTUS43 KGRB 022330
TAFATW
TAF
KATW 022330Z 0300/0324 18007KT P6SM SCT050 SCT120
     FM030100 15004KT 5SM BR SCT035 BKN070
      TEMPO 0301/0305 2SM -SHRA BR BKN035
     FM030500 VRB03KT 4SM BR VCTS SCT035CB BKN120
     FM030900 VRB03KT 3SM BR VCSH SCT009 BKN030
      TEMPO 0309/0313 1SM -TSRA BR BKN009CB
     FM031500 15005KT P6SM VCSH BKN020
     FM031800 12006KT P6SM VCSH SCT020 BKN040=

USA.gov is the U.S. government's official web portal to all federal, state and local government web resources and services.